Pauls Valley, OK (73075)

7:28 PM CST on February 23, 2017 (GMT -0600)
Pauls Valley Municipal | | Change Station
Active Advisory: Fire Weather Warning

Elev 968 ft 34.71 °N, 97.23 °W | Updated 13 minutes ago

Clear
Clear
75 °F
Feels Like 75 °F
N
7
Wind Variable Wind from SSE

Today
High -- | Low -- °F
--% Chance of Precip.
Yesterday
High -- | Low -- °F
Precip. -- in
Pressure 29.41 in
Visibility 10.0 miles
Clouds Clear
Dew Point 49 °F
Humidity 40%
Rainfall 0.00 in
Snow Depth Not available.
7:05 AM 6:19 PM
Waning Crescent, 7% visible
METAR KPVJ 240115Z AUTO 15006KT 10SM CLR 24/09 A2941 RMK AO2 T02370093
Pressure 29.41 in
Visibility 10.0 miles
Clouds Clear
Dew Point 49 °F
Humidity 40%
Rainfall 0.00 in
Snow Depth Not available.
7:05 AM 6:19 PM
Waning Crescent, 7% visible
METAR KPVJ 240115Z AUTO 15006KT 10SM CLR 24/09 A2941 RMK AO2 T02370093

Get Your Daily Forecast Email!

Thanks for signing up!

Be on the lookout for a verification email in your inbox.

You'll start receiving the daily forecast at 8 AM.

×

10-Day Weather Forecast

Almanac

Astronomy

Feb. 23, 2017 Rise Set
Actual Time
Civil Twilight
Nautical Twilight
Astronomical Twilight
Moon
Length of Visible Light
Length of Day
Tomorrow will be .
, % of the Moon is Illuminated

Today's Extremes

State Highs State Lows

Community

WunderPhotos

Upload Photos

1,962,540 photos uploaded!

WunderBlog® & News

Nearby

Air Quality

  Air Quality AQ Index Pollutant
Not available.

Snow Depth

Station Depth Elevation

Earthquake Activity

City Distance Mag. Time & Date
Minimum magnitude displayed is 2.5.

Coastal Water Temperatures

Place Temperature

Stations

Nearby Weather Stations

Station Location Temp. Windchill Dew Point Humidity Wind Precip. Elev Updated Type
                   

Watches & Warnings

Fire Weather Warning
Issued: 11:53 AM CST Feb. 23, 2017 – National Weather Service

... Red flag warning remains in effect until 9 PM CST this evening
for windy conditions... warm temperatures and low relative
humidity for central portions of Oklahoma and parts of western
North Texas...

* timing... late Thursday morning through Thursday evening.

* Wind... south to southwest 10 to 20 mph, with gusts to 35 mph.

* Humidity... 15 to 30 percent.

* Temperature... mid 80s.

* Impacts... any fires that develop will likely spread rapidly.
Outdoor burning is not recommended.

Precautionary/preparedness actions...

A red flag warning means that critical fire weather conditions
are either occurring now, or will shortly. A combination of
strong winds, low relative humidity, and warm temperatures can
contribute to extreme fire behavior.